Time;durP1;ratioP1;P1;durP2;ratioP2;P2;SDS_P1;SDS_P2;PMS_P1;PMS_P2;Temp;Humidity;BMP_temperature;BMP_pressure;BME280_temperature;BME280_humidity;BME280_pressure;Samples;Min_cycle;Max_cycle;Signal;HPM_P1;HPM_P2
2023/03/27 00:02:42;;;;;;;13.27;6.83;;;3.90;99.90;;;;;;10212712;29;20293;-82
2023/03/27 00:07:50;;;;;;;15.53;6.17;;;4.30;99.90;;;;;;10212675;29;20246;-82
2023/03/27 00:12:53;;;;;;;14.77;5.43;;;4.30;99.90;;;;;;10212488;29;20242;-82
2023/03/27 00:17:57;;;;;;;13.10;5.90;;;4.40;99.90;;;;;;10211729;29;20241;-81
2023/03/27 00:23:01;;;;;;;18.33;6.80;;;4.70;99.90;;;;;;10210911;29;20278;-81
2023/03/27 00:28:03;;;;;;;15.47;6.57;;;4.80;99.90;;;;;;10211234;29;20266;-81
2023/03/27 00:33:09;;;;;;;11.80;5.20;;;4.80;99.90;;;;;;10212045;29;20297;-82
2023/03/27 00:38:13;;;;;;;11.53;5.00;;;4.80;99.90;;;;;;10211539;29;20266;-82
2023/03/27 00:43:27;;;;;;;10.90;4.50;;;5.00;99.90;;;;;;10211391;29;20258;-82
2023/03/27 00:48:33;;;;;;;12.50;5.90;;;5.10;99.90;;;;;;10208745;29;20223;-82
2023/03/27 00:53:36;;;;;;;14.17;6.03;;;5.10;99.90;;;;;;10209287;29;20270;-82
2023/03/27 00:59:00;;;;;;;13.90;5.50;;;5.30;99.90;;;;;;10211021;29;20680;-81
2023/03/27 01:04:06;;;;;;;14.50;6.53;;;5.60;99.90;;;;;;10210793;29;20322;-82
2023/03/27 01:09:08;;;;;;;11.90;5.33;;;5.90;99.90;;;;;;10208172;29;20243;-81
2023/03/27 01:14:15;;;;;;;12.63;5.30;;;5.90;99.90;;;;;;10224451;29;20318;-81
2023/03/27 01:19:29;;;;;;;10.60;5.53;;;6.00;99.90;;;;;;10208563;29;20250;-82
2023/03/27 01:24:51;;;;;;;11.00;4.20;;;;;;;;;;10200669;29;20266;-82
2023/03/27 01:30:03;;;;;;;7.30;3.07;;;;;;;;;;10209407;29;20218;-81
2023/03/27 01:35:13;;;;;;;9.40;4.33;;;;;;;;;;10208088;29;20309;-81
2023/03/27 01:40:21;;;;;;;10.97;4.50;;;;;;;;;;10206524;29;20894;-81
2023/03/27 01:45:35;;;;;;;8.43;2.97;;;;;;;;;;10207069;29;20259;-82
2023/03/27 01:50:50;;;;;;;9.80;3.40;;;;;;;;;;10208975;29;20235;-82
2023/03/27 01:55:59;;;;;;;10.67;3.20;;;;;;;;;;10208699;29;20249;-82
2023/03/27 02:01:03;;;;;;;7.27;4.17;;;;;;;;;;10206310;29;20245;-81
2023/03/27 02:06:13;;;;;;;7.90;3.70;;;;;;;;;;10206779;29;20258;-82
2023/03/27 02:11:16;;;;;;;6.50;2.80;;;5.60;99.90;;;;;;10208155;29;20270;-82
2023/03/27 02:16:27;;;;;;;11.27;3.50;;;5.90;99.90;;;;;;10208312;29;20311;-81
2023/03/27 02:21:31;;;;;;;13.63;4.47;;;5.70;99.90;;;;;;10205811;29;20243;-81
2023/03/27 02:26:35;;;;;;;8.70;3.63;;;5.40;99.90;;;;;;10205103;29;20262;-81
2023/03/27 02:32:05;;;;;;;7.17;3.70;;;5.20;99.90;;;;;;10207486;29;20294;-82
2023/03/27 02:37:24;;;;;;;5.33;2.93;;;;;;;;;;10206057;29;20599;-81
2023/03/27 02:43:06;;;;;;;8.30;2.70;;;5.10;99.90;;;;;;10191630;29;20910;-83
2023/03/27 02:48:15;;;;;;;3.00;1.90;;;4.90;99.90;;;;;;10220940;28;20242;-82
2023/03/27 02:53:22;;;;;;;7.50;3.23;;;4.90;99.90;;;;;;10221058;29;20679;-81
2023/03/27 02:58:38;;;;;;;7.13;3.30;;;4.80;99.90;;;;;;10204852;29;20215;-81
2023/03/27 03:04:00;;;;;;;7.07;3.17;;;4.80;99.90;;;;;;10205248;29;20740;-82
2023/03/27 03:09:23;;;;;;;6.37;3.50;;;4.90;99.90;;;;;;10210147;29;20663;-81
2023/03/27 03:14:32;;;;;;;2.93;2.33;;;4.90;99.90;;;;;;10204107;29;20266;-81
2023/03/27 03:19:35;;;;;;;5.87;2.40;;;4.40;99.90;;;;;;10189310;29;20297;-82
2023/03/27 03:24:40;;;;;;;5.20;3.77;;;4.30;99.90;;;;;;10188793;29;20270;-81
2023/03/27 03:29:47;;;;;;;6.60;3.60;;;4.30;99.90;;;;;;10204450;29;20234;-81
2023/03/27 03:34:55;;;;;;;5.67;3.10;;;4.00;99.90;;;;;;10203593;29;20242;-82
2023/03/27 03:39:59;;;;;;;3.80;2.53;;;3.60;99.90;;;;;;10202165;29;20290;-81
2023/03/27 03:45:02;;;;;;;3.67;2.53;;;3.70;99.90;;;;;;10201833;29;20254;-81
2023/03/27 03:50:06;;;;;;;5.43;2.40;;;3.90;99.90;;;;;;10196849;29;20274;-82
2023/03/27 03:55:10;;;;;;;3.77;2.10;;;3.50;99.90;;;;;;10201702;29;20354;-82
2023/03/27 04:00:15;;;;;;;4.93;2.00;;;3.70;99.90;;;;;;10208783;29;20640;-81
2023/03/27 04:05:22;;;;;;;5.03;2.53;;;3.70;99.90;;;;;;10210375;29;20258;-81
2023/03/27 04:10:29;;;;;;;4.70;2.40;;;3.70;99.90;;;;;;10205000;29;20235;-81
2023/03/27 04:15:34;;;;;;;5.93;3.60;;;4.00;99.90;;;;;;10207424;29;20998;-81
2023/03/27 04:20:40;;;;;;;6.67;4.40;;;4.10;99.90;;;;;;10209662;29;20304;-81
2023/03/27 04:25:46;;;;;;;5.10;3.43;;;4.30;99.90;;;;;;10224628;29;20258;-81
2023/03/27 04:30:55;;;;;;;4.90;1.87;;;5.40;99.90;;;;;;10196094;29;20235;-81
2023/03/27 04:36:30;;;;;;;3.83;1.83;;;5.10;99.90;;;;;;10198440;29;20250;-81
2023/03/27 04:41:48;;;;;;;6.37;2.07;;;4.90;99.90;;;;;;10205859;29;20294;-81
2023/03/27 04:46:51;;;;;;;5.10;3.67;;;4.90;99.90;;;;;;10208209;29;20624;-81
2023/03/27 04:51:54;;;;;;;2.77;2.40;;;5.40;99.90;;;;;;10194666;29;20635;-81
2023/03/27 04:57:02;;;;;;;7.03;4.40;;;5.10;99.90;;;;;;10208250;29;20383;-81
2023/03/27 05:02:06;;;;;;;5.00;3.70;;;;;;;;;;10167787;29;20962;-81
2023/03/27 05:07:18;;;;;;;4.40;2.13;;;7.00;99.90;;;;;;10211359;29;20318;-81
2023/03/27 05:12:22;;;;;;;4.00;3.10;;;6.20;99.90;;;;;;10207385;29;20234;-81
2023/03/27 05:17:31;;;;;;;8.53;4.20;;;;;;;;;;10205818;29;20238;-81
2023/03/27 05:22:33;;;;;;;3.93;2.40;;;6.80;99.90;;;;;;10207471;29;20228;-81
2023/03/27 05:27:46;;;;;;;5.37;3.83;;;7.50;99.90;;;;;;10201041;29;20318;-81
2023/03/27 05:32:51;;;;;;;3.60;1.93;;;7.90;99.90;;;;;;10186679;29;20613;-81
2023/03/27 05:38:13;;;;;;;4.03;2.70;;;7.30;99.90;;;;;;10195999;29;20697;-81
2023/03/27 05:43:49;;;;;;;3.07;1.80;;;6.40;94.60;;;;;;10192652;29;20289;-81
2023/03/27 05:48:54;;;;;;;1.70;1.20;;;6.70;99.90;;;;;;10218865;29;20215;-81
2023/03/27 05:53:58;;;;;;;2.57;0.90;;;4.50;95.20;;;;;;10190444;29;20243;-89
2023/03/27 05:59:11;;;;;;;1.13;0.97;;;6.50;99.90;;;;;;10168243;29;20252;-89
2023/03/27 06:04:16;;;;;;;1.60;1.20;;;8.20;99.90;;;;;;10216236;28;20302;-90
2023/03/27 06:09:48;;;;;;;2.90;1.27;;;8.20;94.20;;;;;;10198480;29;20235;-89
2023/03/27 06:15:20;;;;;;;3.37;1.20;;;7.90;88.80;;;;;;10195182;29;20250;-90
2023/03/27 06:20:39;;;;;;;5.80;1.40;;;8.00;92.70;;;;;;10207854;29;20234;-89
2023/03/27 06:25:42;;;;;;;2.53;1.00;;;8.10;82.00;;;;;;10207249;29;20262;-89
2023/03/27 06:30:48;;;;;;;0.97;0.50;;;7.40;90.70;;;;;;10190343;29;20255;-90
2023/03/27 06:36:04;;;;;;;2.10;0.93;;;6.40;82.70;;;;;;10207927;29;20317;-91
2023/03/27 06:41:11;;;;;;;0.70;0.57;;;6.90;62.90;;;;;;10189345;29;20684;-89
2023/03/27 06:46:37;;;;;;;2.37;0.83;;;6.20;66.00;;;;;;10201969;29;20320;-90
2023/03/27 06:51:57;;;;;;;1.83;0.53;;;6.00;62.80;;;;;;10220883;29;20238;-90
2023/03/27 06:57:00;;;;;;;3.70;0.73;;;5.30;95.00;;;;;;10204640;29;20246;-90
2023/03/27 07:02:11;;;;;;;0.57;0.40;;;5.50;74.90;;;;;;10208160;29;20469;-90
2023/03/27 07:07:41;;;;;;;6.23;3.10;;;5.70;96.60;;;;;;10198937;29;20265;-91
2023/03/27 07:12:50;;;;;;;2.77;1.20;;;5.70;74.50;;;;;;10203388;29;20301;-90
2023/03/27 07:17:54;;;;;;;1.17;0.60;;;7.10;65.40;;;;;;10203196;29;20242;-90
2023/03/27 07:22:58;;;;;;;2.50;0.93;;;7.00;93.20;;;;;;10205239;29;20242;-91
2023/03/27 07:28:21;;;;;;;0.93;0.57;;;6.40;58.70;;;;;;10205977;29;20262;-90
2023/03/27 07:33:24;;;;;;;1.13;0.50;;;7.00;67.60;;;;;;10225699;28;20310;-90
2023/03/27 07:38:26;;;;;;;1.17;0.87;;;6.90;54.00;;;;;;10209803;29;20265;-91
2023/03/27 07:43:44;;;;;;;1.13;0.50;;;7.20;90.60;;;;;;10208693;29;20320;-91
2023/03/27 07:48:47;;;;;;;4.13;0.60;;;7.50;81.10;;;;;;10209627;29;20246;-90
2023/03/27 07:53:55;;;;;;;1.13;0.60;;;6.70;48.80;;;;;;10210204;29;20243;-90
2023/03/27 07:59:06;;;;;;;2.17;0.40;;;6.30;95.40;;;;;;10197392;29;20239;-90
2023/03/27 08:04:09;;;;;;;1.50;0.57;;;7.50;49.50;;;;;;10210270;29;20661;-90
2023/03/27 08:09:16;;;;;;;0.73;0.43;;;6.50;58.00;;;;;;10203887;29;20247;-90
2023/03/27 08:14:20;;;;;;;1.33;0.60;;;7.40;95.40;;;;;;10185217;29;20238;-91
2023/03/27 08:19:24;;;;;;;0.83;0.40;;;6.30;42.60;;;;;;10225533;29;20954;-91
2023/03/27 08:24:33;;;;;;;1.37;0.53;;;6.10;53.70;;;;;;10209914;29;20254;-90
2023/03/27 08:29:56;;;;;;;0.67;0.40;;;7.00;74.60;;;;;;10210833;29;20377;-91
2023/03/27 08:34:58;;;;;;;1.53;0.67;;;9.90;99.00;;;;;;10208681;29;20306;-90
2023/03/27 08:40:07;;;;;;;0.50;0.50;;;9.20;58.50;;;;;;10208351;29;20379;-91
2023/03/27 08:45:28;;;;;;;1.93;1.03;;;10.40;96.60;;;;;;10203899;29;20254;-91
2023/03/27 08:51:03;;;;;;;1.23;0.50;;;9.50;58.90;;;;;;10208512;29;20238;-91
2023/03/27 08:56:17;;;;;;;2.40;0.60;;;8.00;33.20;;;;;;10210509;29;20244;-90
2023/03/27 09:01:39;;;;;;;1.07;0.50;;;7.60;40.40;;;;;;10208331;29;20677;-91
2023/03/27 09:07:12;;;;;;;0.90;0.63;;;6.40;40.50;;;;;;10198311;29;20262;-90
2023/03/27 09:12:42;;;;;;;1.33;0.60;;;6.30;41.80;;;;;;10223044;29;20242;-91
2023/03/27 09:17:47;;;;;;;0.93;0.50;;;7.70;55.50;;;;;;10207926;29;20648;-91
2023/03/27 09:23:30;;;;;;;0.83;0.40;;;6.80;47.90;;;;;;10206665;29;20246;-91
2023/03/27 09:28:58;;;;;;;0.93;0.50;;;6.70;57.70;;;;;;10208820;29;20677;-90
2023/03/27 09:34:10;;;;;;;0.93;0.70;;;8.50;97.80;;;;;;10206200;29;20235;-91
2023/03/27 09:39:21;;;;;;;2.67;0.73;;;8.10;52.60;;;;;;10205200;29;20321;-91
2023/03/27 09:44:41;;;;;;;0.57;0.57;;;7.40;29.90;;;;;;10191425;29;20266;-91
2023/03/27 09:50:12;;;;;;;0.67;0.53;;;7.00;35.70;;;;;;10207447;29;20302;-91
2023/03/27 09:55:30;;;;;;;0.90;0.53;;;8.60;98.20;;;;;;10206701;29;20254;-90
2023/03/27 10:00:41;;;;;;;2.90;1.80;;;7.80;47.10;;;;;;10206540;29;20251;-91
2023/03/27 10:05:45;;;;;;;4.13;2.60;;;8.50;88.70;;;;;;10206940;29;20282;-90
2023/03/27 10:10:57;;;;;;;6.67;3.60;;;8.60;24.50;;;;;;10207984;29;20680;-91
2023/03/27 10:16:16;;;;;;;3.73;1.37;;;7.00;25.40;;;;;;10243375;29;20238;-91
2023/03/27 10:21:42;;;;;;;1.83;0.87;;;6.80;47.20;;;;;;10233623;28;20757;-92
2023/03/27 10:26:52;;;;;;;3.30;1.67;;;6.40;35.40;;;;;;10173743;29;20720;-93
2023/03/27 10:31:58;;;;;;;2.17;0.90;;;6.40;34.40;;;;;;10193201;29;20671;-92
2023/03/27 10:37:35;;;;;;;1.63;0.80;;;6.20;33.20;;;;;;10189872;29;20305;-91
2023/03/27 10:43:16;;;;;;;3.63;1.17;;;6.30;68.40;;;;;;10202267;29;20306;-90
2023/03/27 10:48:39;;;;;;;8.60;1.60;;;5.70;38.50;;;;;;10202499;29;20265;-91
2023/03/27 10:53:55;;;;;;;3.67;1.40;;;5.70;40.80;;;;;;10204617;29;20245;-91
2023/03/27 10:59:20;;;;;;;1.17;0.97;;;6.50;53.00;;;;;;10204160;29;20613;-91
2023/03/27 11:05:23;;;;;;;0.43;0.40;;;7.50;90.00;;;;;;10150282;29;20246;-91
2023/03/27 11:10:44;;;;;;;1.77;1.20;;;9.90;37.50;;;;;;10189480;29;20910;-90
2023/03/27 11:16:08;;;;;;;1.30;0.60;;;8.60;27.70;;;;;;10188443;29;20250;-91
2023/03/27 11:21:51;;;;;;;0.93;0.60;;;7.90;28.90;;;;;;10122110;29;20244;-91
2023/03/27 11:27:07;;;;;;;3.20;1.57;;;8.10;39.00;;;;;;10121073;29;20251;-90
2023/03/27 11:32:40;;;;;;;1.90;1.70;;;8.30;28.50;;;;;;10120980;29;20367;-91
2023/03/27 11:37:51;;;;;;;14.77;3.93;;;8.70;37.00;;;;;;10099002;29;20331;-90
2023/03/27 11:42:55;;;;;;;10.37;3.23;;;8.60;41.80;;;;;;10114416;29;20287;-90
2023/03/27 11:48:17;;;;;;;13.70;3.53;;;7.70;30.10;;;;;;10124356;29;20260;-90
2023/03/27 11:53:23;;;;;;;1.83;0.90;;;7.30;32.90;;;;;;10143373;29;20242;-90
2023/03/27 11:59:03;;;;;;;2.93;1.03;;;7.30;28.10;;;;;;10204645;29;20659;-90
2023/03/27 12:04:31;;;;;;;2.00;0.80;;;6.90;33.90;;;;;;10202917;29;20389;-89
2023/03/27 12:10:02;;;;;;;1.33;0.40;;;7.40;74.00;;;;;;10201592;29;20355;-91
2023/03/27 12:15:56;;;;;;;8.77;2.67;;;8.80;99.60;;;;;;10192666;29;20235;-91
2023/03/27 12:21:36;;;;;;;6.97;2.87;;;8.70;33.50;;;;;;10207790;29;20239;-91
2023/03/27 12:27:09;;;;;;;2.03;0.60;;;7.40;30.00;;;;;;10210998;29;20266;-92
2023/03/27 12:32:47;;;;;;;1.87;0.80;;;9.00;95.20;;;;;;10207696;29;20259;-91
2023/03/27 12:38:00;;;;;;;2.23;0.90;;;10.80;91.10;;;;;;10225379;29;20329;-90
2023/03/27 12:43:25;;;;;;;3.60;1.40;;;9.80;58.90;;;;;;10209446;29;20258;-91
2023/03/27 12:48:57;;;;;;;1.93;0.80;;;8.00;27.80;;;;;;10207212;29;20335;-92
2023/03/27 12:54:21;;;;;;;3.93;0.80;;;7.40;44.30;;;;;;10185251;29;20880;-92
2023/03/27 12:59:27;;;;;;;2.97;1.40;;;7.50;46.20;;;;;;10202486;29;20305;-90
2023/03/27 13:04:42;;;;;;;1.53;0.50;;;9.00;62.20;;;;;;10222902;29;20234;-91
2023/03/27 13:10:00;;;;;;;1.50;0.83;;;8.90;99.90;;;;;;10208933;29;20257;-91
2023/03/27 13:15:16;;;;;;;1.07;0.60;;;9.80;91.80;;;;;;10207240;29;20271;-91
2023/03/27 13:21:24;;;;;;;3.03;0.57;;;10.60;78.60;;;;;;10168773;29;20239;-92
2023/03/27 13:27:05;;;;;;;2.03;1.37;;;11.40;66.50;;;;;;10132101;29;20259;-90
2023/03/27 13:32:29;;;;;;;0.63;0.50;;;9.70;26.00;;;;;;10074089;29;20732;-90
2023/03/27 13:37:59;;;;;;;1.47;0.70;;;9.10;53.00;;;;;;10100012;29;20273;-89
2023/03/27 13:43:32;;;;;;;1.33;0.77;;;10.00;70.30;;;;;;10075592;29;20248;-90
2023/03/27 13:49:03;;;;;;;1.17;0.63;;;10.20;49.50;;;;;;10101545;29;20264;-89
2023/03/27 13:54:50;;;;;;;1.10;0.80;;;11.10;66.50;;;;;;10071417;29;20242;-89
2023/03/27 14:00:06;;;;;;;1.37;0.73;;;10.40;29.70;;;;;;10133900;29;20275;-89
2023/03/27 14:05:34;;;;;;;1.50;0.80;;;9.80;43.70;;;;;;10168471;29;20236;-89
2023/03/27 14:10:56;;;;;;;1.30;0.77;;;10.20;54.50;;;;;;10194224;29;20238;-89
2023/03/27 14:16:05;;;;;;;4.57;2.73;;;10.00;43.90;;;;;;10205211;29;20295;-89
2023/03/27 14:21:17;;;;;;;1.47;0.90;;;10.80;33.00;;;;;;10218212;29;20250;-90
2023/03/27 14:26:44;;;;;;;2.30;1.10;;;10.60;14.30;;;;;;10203377;29;20287;-90
2023/03/27 14:31:49;;;;;;;3.53;1.77;;;10.80;44.00;;;;;;10204600;29;20240;-89
2023/03/27 14:37:35;;;;;;;0.93;0.83;;;10.80;18.00;;;;;;10153592;29;20271;-88
2023/03/27 14:42:50;;;;;;;2.90;1.60;;;9.60;28.90;;;;;;10160723;29;20247;-89
2023/03/27 14:47:58;;;;;;;2.03;1.83;;;9.30;19.30;;;;;;10165170;29;20298;-89
2023/03/27 14:53:09;;;;;;;2.80;0.70;;;9.30;28.70;;;;;;10177330;29;20226;-88
2023/03/27 14:58:32;;;;;;;4.83;2.43;;;8.70;30.30;;;;;;10205796;29;20301;-89
2023/03/27 15:03:36;;;;;;;3.63;2.40;;;7.90;21.10;;;;;;10204475;29;20228;-89
2023/03/27 15:08:45;;;;;;;3.33;1.87;;;7.50;18.10;;;;;;10219999;29;20258;-89
2023/03/27 15:14:01;;;;;;;2.53;1.60;;;6.90;17.70;;;;;;10204310;29;20239;-89
2023/03/27 15:19:17;;;;;;;2.30;1.10;;;6.60;24.40;;;;;;10203662;29;20639;-90
2023/03/27 15:24:38;;;;;;;1.40;1.10;;;7.50;33.70;;;;;;10209357;29;20238;-89
2023/03/27 15:29:46;;;;;;;4.80;2.13;;;9.40;53.10;;;;;;10203323;29;20673;-89
2023/03/27 15:34:56;;;;;;;11.23;5.83;;;8.90;25.40;;;;;;10204259;29;20311;-89
2023/03/27 15:40:23;;;;;;;11.60;5.23;;;8.10;17.50;;;;;;10198189;29;20672;-88
2023/03/27 15:45:38;;;;;;;1.53;0.77;;;7.80;26.00;;;;;;10199008;29;20266;-88
2023/03/27 15:50:54;;;;;;;8.83;1.67;;;7.80;22.70;;;;;;10204513;29;20750;-90
2023/03/27 15:55:59;;;;;;;4.37;2.70;;;8.80;28.50;;;;;;10212943;29;20234;-91
2023/03/27 16:01:06;;;;;;;1.87;1.47;;;7.80;16.80;;;;;;10194374;29;20235;-90
2023/03/27 16:06:25;;;;;;;11.83;5.10;;;7.60;25.60;;;;;;10212273;29;20250;-89
2023/03/27 16:11:47;;;;;;;2.23;1.63;;;7.60;18.00;;;;;;10211702;29;20297;-89
2023/03/27 16:17:07;;;;;;;3.53;1.37;;;7.20;17.30;;;;;;10211997;29;20231;-89
2023/03/27 16:22:12;;;;;;;3.13;1.27;;;7.20;24.80;;;;;;10210902;29;20234;-89
2023/03/27 16:27:15;;;;;;;1.23;0.93;;;6.80;18.90;;;;;;10207522;29;20298;-89
2023/03/27 16:32:19;;;;;;;0.83;0.67;;;6.80;21.10;;;;;;10204165;29;20294;-89
2023/03/27 16:37:24;;;;;;;2.07;0.77;;;7.00;33.30;;;;;;9865294;29;10000239;-89
2023/03/27 16:42:26;;;;;;;3.53;1.60;;;7.20;33.60;;;;;;10206820;29;20330;-89
2023/03/27 16:47:30;;;;;;;4.17;1.87;;;7.20;25.00;;;;;;10207976;29;20250;-89
2023/03/27 16:52:33;;;;;;;3.37;2.13;;;7.20;35.10;;;;;;10209429;29;20227;-89
2023/03/27 16:57:36;;;;;;;6.87;3.10;;;7.30;41.60;;;;;;10205508;29;20246;-90
2023/03/27 17:02:38;;;;;;;3.77;2.33;;;7.30;31.60;;;;;;10206864;29;20238;-90
2023/03/27 17:07:42;;;;;;;2.93;2.63;;;7.00;28.80;;;;;;10207100;29;20274;-89
2023/03/27 17:12:45;;;;;;;4.37;3.37;;;6.80;33.50;;;;;;10207355;29;20294;-90
2023/03/27 17:17:49;;;;;;;5.83;3.83;;;6.50;27.00;;;;;;10207061;29;20242;-89
2023/03/27 17:22:51;;;;;;;5.43;3.50;;;6.40;39.10;;;;;;10209201;29;20661;-89
2023/03/27 17:27:54;;;;;;;6.23;3.53;;;6.30;41.20;;;;;;10207523;29;20259;-89
2023/03/27 17:32:57;;;;;;;7.87;4.10;;;6.20;37.40;;;;;;10201261;29;20234;-89
2023/03/27 17:37:59;;;;;;;9.07;4.37;;;5.70;26.80;;;;;;10206217;29;20325;-89
2023/03/27 17:43:02;;;;;;;9.10;4.53;;;5.70;34.90;;;;;;10205784;29;20246;-89
2023/03/27 17:48:05;;;;;;;8.37;4.97;;;5.60;35.30;;;;;;10207112;29;20890;-89
2023/03/27 17:53:08;;;;;;;5.67;3.40;;;5.20;37.80;;;;;;10204018;29;20285;-90
2023/03/27 17:58:11;;;;;;;13.50;7.83;;;4.90;47.50;;;;;;10203273;29;20251;-90
2023/03/27 18:03:14;;;;;;;23.23;12.50;;;4.00;40.00;;;;;;10204822;29;20230;-89
2023/03/27 18:08:18;;;;;;;24.07;13.00;;;3.70;47.10;;;;;;10204810;29;20343;-90
2023/03/27 18:13:21;;;;;;;26.80;11.80;;;2.80;43.60;;;;;;10206421;29;20697;-89
2023/03/27 18:18:26;;;;;;;65.77;29.83;;;2.60;50.40;;;;;;10203851;29;20236;-89
2023/03/27 18:23:28;;;;;;;60.23;23.90;;;2.70;64.10;;;;;;10203028;29;21044;-89
2023/03/27 18:28:31;;;;;;;52.87;19.67;;;2.60;71.90;;;;;;10203951;29;20321;-90
2023/03/27 18:33:34;;;;;;;21.07;11.23;;;2.60;86.40;;;;;;10203223;29;20964;-89
2023/03/27 18:38:40;;;;;;;39.80;16.43;;;3.00;92.20;;;;;;10205297;29;20278;-90
2023/03/27 18:43:43;;;;;;;17.57;9.63;;;1.80;81.40;;;;;;10205183;29;20250;-88
2023/03/27 18:48:47;;;;;;;18.97;8.47;;;1.30;89.10;;;;;;10205748;29;20749;-89
2023/03/27 18:53:50;;;;;;;20.87;9.93;;;1.00;89.00;;;;;;10201929;29;20313;-89
2023/03/27 18:58:53;;;;;;;22.70;10.27;;;0.50;85.70;;;;;;10213587;29;20846;-89
2023/03/27 19:03:55;;;;;;;19.00;9.57;;;0.70;92.80;;;;;;10200861;29;20238;-89
2023/03/27 19:08:58;;;;;;;16.57;8.10;;;0.70;94.30;;;;;;10203559;29;20266;-90
2023/03/27 19:14:00;;;;;;;24.93;10.83;;;1.00;98.20;;;;;;10204284;29;20299;-90
2023/03/27 19:19:30;;;;;;;18.53;7.97;;;0.80;95.50;;;;;;10199633;29;20235;-90
2023/03/27 19:24:40;;;;;;;15.00;6.53;;;0.50;99.80;;;;;;10169577;29;20239;-90
2023/03/27 19:29:42;;;;;;;29.87;12.07;;;1.10;99.90;;;;;;10197455;29;20710;-91
2023/03/27 19:34:46;;;;;;;47.67;17.53;;;1.40;99.90;;;;;;10211576;29;20235;-89
2023/03/27 19:39:50;;;;;;;74.37;28.17;;;1.30;99.90;;;;;;10196407;29;20709;-91
2023/03/27 19:44:53;;;;;;;113.90;44.60;;;1.60;99.90;;;;;;10212339;29;20238;-91
2023/03/27 19:49:55;;;;;;;145.97;56.80;;;1.20;99.90;;;;;;10210827;29;20321;-90
2023/03/27 19:55:07;;;;;;;166.83;71.53;;;0.60;98.40;;;;;;10211331;29;20231;-89
2023/03/27 20:00:11;;;;;;;170.77;79.33;;;0.00;99.00;;;;;;10210028;29;20700;-88
2023/03/27 20:05:17;;;;;;;129.50;47.93;;;-0.50;99.70;;;;;;10210966;29;20309;-88
2023/03/27 20:10:20;;;;;;;153.97;65.43;;;0.50;99.90;;;;;;10211746;29;20309;-89
2023/03/27 20:15:23;;;;;;;144.83;65.30;;;1.00;99.90;;;;;;10209740;29;20231;-89
2023/03/27 20:20:26;;;;;;;125.93;57.93;;;0.40;99.90;;;;;;10210330;29;20242;-89
2023/03/27 20:25:28;;;;;;;127.17;60.40;;;0.40;99.90;;;;;;10210122;29;20243;-89
2023/03/27 20:30:33;;;;;;;132.73;69.10;;;0.60;99.90;;;;;;10210411;29;20254;-89
2023/03/27 20:35:36;;;;;;;152.13;77.33;;;0.70;99.90;;;;;;10210644;29;20255;-89
2023/03/27 20:40:42;;;;;;;169.90;79.67;;;0.50;99.90;;;;;;10209268;29;20210;-90
2023/03/27 20:45:57;;;;;;;195.53;92.03;;;0.30;99.90;;;;;;10207883;29;20234;-89
2023/03/27 20:51:05;;;;;;;172.93;83.47;;;0.30;99.90;;;;;;10209937;29;20700;-90
2023/03/27 20:56:11;;;;;;;130.30;58.50;;;0.20;99.90;;;;;;10210512;29;20231;-90
2023/03/27 21:01:13;;;;;;;111.03;49.03;;;0.30;99.90;;;;;;10201789;29;20297;-90
2023/03/27 21:06:18;;;;;;;70.03;37.20;;;0.50;99.90;;;;;;10209481;29;20246;-89
2023/03/27 21:11:21;;;;;;;67.63;33.53;;;0.60;99.50;;;;;;10208481;29;20705;-90
2023/03/27 21:16:23;;;;;;;64.60;30.60;;;0.70;99.40;;;;;;10208202;29;20227;-89
2023/03/27 21:21:26;;;;;;;58.20;27.33;;;1.00;96.90;;;;;;10206004;29;20246;-91
2023/03/27 21:26:29;;;;;;;69.30;27.30;;;2.10;99.90;;;;;;10206054;29;20243;-91
2023/03/27 21:31:32;;;;;;;70.87;30.27;;;3.60;99.90;;;;;;10200187;29;20262;-91
2023/03/27 21:36:36;;;;;;;50.30;25.27;;;5.70;99.90;;;;;;10204402;29;20912;-90
2023/03/27 21:41:39;;;;;;;40.37;20.77;;;6.80;99.90;;;;;;10206993;29;21035;-91
2023/03/27 21:46:42;;;;;;;56.47;26.80;;;7.30;91.70;;;;;;10203658;29;20237;-91
2023/03/27 21:51:45;;;;;;;44.87;23.20;;;6.90;93.10;;;;;;10207048;29;20287;-90
2023/03/27 21:56:47;;;;;;;39.80;18.43;;;6.70;77.00;;;;;;10203034;29;20238;-88
2023/03/27 22:01:50;;;;;;;41.30;19.37;;;6.70;79.20;;;;;;10195925;29;20238;-88
2023/03/27 22:06:53;;;;;;;38.13;19.97;;;6.60;81.40;;;;;;10207342;29;20234;-89
2023/03/27 22:11:57;;;;;;;52.10;22.33;;;7.00;74.30;;;;;;10206608;29;20232;-89
2023/03/27 22:16:59;;;;;;;57.23;25.03;;;8.80;98.80;;;;;;10200796;29;20285;-88
2023/03/27 22:22:02;;;;;;;53.60;25.60;;;9.30;97.70;;;;;;10207914;29;20313;-89
2023/03/27 22:27:04;;;;;;;48.07;21.43;;;9.70;93.20;;;;;;10206572;29;20274;-89
2023/03/27 22:32:07;;;;;;;52.67;22.30;;;10.30;93.50;;;;;;10207565;29;20237;-89
2023/03/27 22:37:10;;;;;;;40.17;19.30;;;10.40;91.20;;;;;;10206255;29;20729;-91
2023/03/27 22:42:12;;;;;;;52.73;22.03;;;10.60;76.30;;;;;;10205392;29;20255;-90
2023/03/27 22:47:15;;;;;;;50.17;21.87;;;10.30;90.30;;;;;;10195882;29;20262;-90
2023/03/27 22:52:18;;;;;;;48.00;21.80;;;10.60;88.70;;;;;;10206345;29;20672;-90
2023/03/27 22:57:20;;;;;;;42.77;19.27;;;11.60;88.80;;;;;;10205815;29;20771;-90
2023/03/27 23:02:23;;;;;;;44.47;20.90;;;11.90;84.90;;;;;;10205845;29;20317;-90
2023/03/27 23:07:25;;;;;;;47.97;19.47;;;11.60;90.40;;;;;;10195407;29;20691;-90
2023/03/27 23:12:28;;;;;;;39.27;17.00;;;11.80;74.30;;;;;;10183860;29;20238;-90
2023/03/27 23:17:31;;;;;;;32.73;15.87;;;;;;;;;;10205322;29;20700;-90
2023/03/27 23:22:34;;;;;;;39.47;17.47;;;12.90;79.10;;;;;;10206115;29;20278;-90
2023/03/27 23:27:37;;;;;;;34.97;15.00;;;;;;;;;;10202391;29;20701;-90
2023/03/27 23:32:39;;;;;;;29.53;13.57;;;13.50;76.80;;;;;;10204049;29;20454;-90
2023/03/27 23:37:42;;;;;;;35.13;15.40;;;13.50;69.30;;;;;;10189427;29;20262;-90
2023/03/27 23:42:45;;;;;;;23.80;11.07;;;13.90;62.90;;;;;;10188914;29;20242;-90
2023/03/27 23:47:47;;;;;;;27.83;13.17;;;14.00;67.50;;;;;;10203298;29;20716;-90
2023/03/27 23:52:50;;;;;;;24.67;11.70;;;14.60;63.90;;;;;;10202730;29;20284;-90
2023/03/27 23:57:52;;;;;;;40.60;15.50;;;14.30;61.80;;;;;;10204615;29;20242;-89
